Time;durP1;ratioP1;P1;durP2;ratioP2;P2;SDS_P1;SDS_P2;PMS_P1;PMS_P2;Temp;Humidity;BMP_temperature;BMP_pressure;BME280_temperature;BME280_humidity;BME280_pressure;Samples;Min_cycle;Max_cycle;Signal;HPM_P1;HPM_P2
2023/10/23 00:01:01;;;;;;;2.27;2.00;;;;;;;10.17;100.00;96345.16;5111634;28;20205;-57
2023/10/23 00:03:27;;;;;;;2.20;2.00;;;;;;;10.13;100.00;96338.50;5111827;28;20205;-57
2023/10/23 00:05:54;;;;;;;2.57;2.30;;;;;;;10.09;100.00;96343.25;5111280;28;20201;-57
2023/10/23 00:08:20;;;;;;;2.83;1.83;;;;;;;10.11;100.00;96343.09;5112171;28;20219;-57
2023/10/23 00:10:47;;;;;;;2.50;2.30;;;;;;;10.15;100.00;96344.50;5112285;28;20530;-57
2023/10/23 00:13:14;;;;;;;2.73;2.50;;;;;;;10.18;100.00;96349.47;5111914;28;20217;-57
2023/10/23 00:15:42;;;;;;;3.70;2.60;;;;;;;10.21;100.00;96355.28;5111013;28;20216;-57
2023/10/23 00:18:08;;;;;;;5.37;2.30;;;;;;;10.19;100.00;96351.16;5111152;28;20215;-57
2023/10/23 00:20:35;;;;;;;3.40;2.50;;;;;;;10.23;100.00;96349.88;5091423;28;20565;-56
2023/10/23 00:23:01;;;;;;;2.57;2.00;;;;;;;10.18;100.00;96352.13;5110243;28;20212;-56
2023/10/23 00:25:28;;;;;;;6.20;2.60;;;;;;;10.14;100.00;96350.72;5111303;28;20200;-57
2023/10/23 00:27:55;;;;;;;3.67;2.23;;;;;;;10.09;100.00;96355.63;5110949;28;20224;-58
2023/10/23 00:30:23;;;;;;;3.33;2.67;;;;;;;10.12;100.00;96352.69;5111562;28;20208;-58
2023/10/23 00:32:50;;;;;;;3.13;2.60;;;;;;;10.13;100.00;96351.72;5110777;28;20256;-57
2023/10/23 00:35:16;;;;;;;3.20;2.87;;;;;;;10.16;100.00;96349.63;5111401;28;20543;-57
2023/10/23 00:37:43;;;;;;;2.97;2.43;;;;;;;10.17;100.00;96345.16;5100162;28;20541;-56
2023/10/23 00:40:11;;;;;;;5.27;2.77;;;;;;;10.13;100.00;96349.06;5120459;28;20201;-58
2023/10/23 00:42:37;;;;;;;2.60;2.40;;;;;;;10.10;100.00;96342.25;5119811;28;20197;-58
2023/10/23 00:45:04;;;;;;;4.77;2.80;;;;;;;10.07;100.00;96345.19;5121147;28;20190;-58
2023/10/23 00:47:32;;;;;;;2.67;2.47;;;;;;;10.11;100.00;96345.72;5122838;28;20209;-57
2023/10/23 00:50:00;;;;;;;2.70;2.50;;;;;;;10.15;100.00;96347.13;5122989;28;20204;-57
2023/10/23 00:52:27;;;;;;;3.60;2.83;;;;;;;10.12;100.00;96347.41;5134140;28;20245;-56
2023/10/23 00:54:54;;;;;;;4.10;2.70;;;;;;;10.11;100.00;96341.28;5133606;28;20181;-56
2023/10/23 00:57:21;;;;;;;3.20;2.87;;;;;;;10.14;100.00;96345.44;5134637;28;20181;-56
2023/10/23 00:59:48;;;;;;;3.87;2.93;;;;;;;10.13;100.00;96349.06;5126134;28;20190;-57
2023/10/23 01:02:15;;;;;;;5.00;3.00;;;;;;;10.15;100.00;96347.13;5121969;28;20197;-59
2023/10/23 01:04:43;;;;;;;3.27;2.90;;;;;;;10.12;100.00;96339.47;5122871;28;20217;-57
2023/10/23 01:07:10;;;;;;;3.10;2.80;;;;;;;10.09;100.00;96342.41;5123307;28;20209;-56
2023/10/23 01:09:36;;;;;;;4.87;3.00;;;;;;;10.08;100.00;96346.88;5120834;28;20211;-57
2023/10/23 01:12:03;;;;;;;5.70;3.00;;;;;;;10.09;100.00;96347.69;5114570;28;20197;-56
2023/10/23 01:14:29;;;;;;;3.17;2.93;;;;;;;10.12;100.00;96350.88;5119338;28;20207;-57
2023/10/23 01:16:56;;;;;;;4.70;3.13;;;;;;;10.08;100.00;96344.22;5117329;28;20205;-58
2023/10/23 01:19:23;;;;;;;3.27;3.03;;;;;;;10.10;100.00;96346.69;5118183;28;20201;-58
2023/10/23 01:21:50;;;;;;;4.37;3.20;;;;;;;10.11;100.00;96343.09;5117499;28;20206;-59
2023/10/23 01:24:19;;;;;;;4.97;3.50;;;;;;;10.13;100.00;96357.00;5112794;28;20212;-58
2023/10/23 01:26:47;;;;;;;3.33;3.03;;;;;;;10.11;100.00;96351.84;5111187;28;20209;-57
2023/10/23 01:29:13;;;;;;;3.27;2.97;;;;;;;10.10;100.00;96342.25;5111355;28;20209;-57
2023/10/23 01:31:40;;;;;;;3.40;3.10;;;;;;;10.12;100.00;96342.13;5111962;28;20220;-57
2023/10/23 01:34:06;;;;;;;3.50;3.20;;;;;;;10.13;100.00;96336.66;5114528;28;20213;-57
2023/10/23 01:36:33;;;;;;;4.57;3.60;;;;;;;10.15;100.00;96333.91;5114423;28;20209;-57
2023/10/23 01:38:59;;;;;;;4.17;3.20;;;;;;;10.12;100.00;96332.38;5114034;28;20201;-58
2023/10/23 01:41:26;;;;;;;3.93;3.07;;;;;;;10.15;100.00;96331.28;5114613;28;20439;-57
2023/10/23 01:43:53;;;;;;;3.77;3.20;;;;;;;10.15;100.00;96337.41;5111977;28;20235;-58
2023/10/23 01:46:20;;;;;;;4.83;3.03;;;;;;;10.19;100.00;96330.00;5114296;28;20212;-57
2023/10/23 01:48:46;;;;;;;3.00;2.80;;;;;;;10.18;100.00;96330.97;5114200;28;20209;-57
2023/10/23 01:51:13;;;;;;;3.10;2.80;;;;;;;10.13;100.00;96330.56;5113207;28;20207;-57
2023/10/23 01:53:40;;;;;;;3.20;2.90;;;;;;;10.16;100.00;96332.94;5113440;28;20661;-57
2023/10/23 01:56:07;;;;;;;3.40;2.73;;;;;;;10.14;100.00;96329.56;5114148;28;20198;-57
2023/10/23 01:58:34;;;;;;;3.20;2.90;;;;;;;10.14;100.00;96340.16;5114094;28;20189;-57
2023/10/23 02:01:02;;;;;;;5.57;3.00;;;;;;;10.13;100.00;96339.31;5114153;28;20193;-57
2023/10/23 02:03:30;;;;;;;3.40;2.93;;;;;;;10.14;100.00;96342.78;5114773;28;20646;-57
2023/10/23 02:05:56;;;;;;;5.03;3.03;;;;;;;10.13;100.00;96333.22;5114648;28;20201;-58
2023/10/23 02:08:23;;;;;;;4.13;2.93;;;;;;;10.15;100.00;96332.13;5115148;28;20201;-57
2023/10/23 02:10:50;;;;;;;2.97;2.67;;;;;;;10.13;100.00;96327.94;5119267;28;20227;-58
2023/10/23 02:13:17;;;;;;;5.70;3.00;;;;;;;10.18;100.00;96321.25;5137332;28;20224;-59
2023/10/23 02:15:43;;;;;;;3.37;2.90;;;;;;;10.18;100.00;96320.41;5133951;28;20201;-57
2023/10/23 02:18:11;;;;;;;5.43;3.20;;;;;;;10.17;100.00;96324.03;5131970;28;20212;-57
2023/10/23 02:20:37;;;;;;;4.23;3.00;;;;;;;10.19;100.00;96322.09;5121657;28;20209;-57
2023/10/23 02:23:04;;;;;;;3.80;2.47;;;;;;;10.15;100.00;96318.91;5113524;28;21371;-57
2023/10/23 02:25:30;;;;;;;2.37;2.23;;;;;;;10.21;100.00;96314.81;5113798;28;20201;-55
2023/10/23 02:27:57;;;;;;;2.93;2.33;;;;;;;10.20;100.00;96319.28;5113070;28;20200;-57
2023/10/23 02:30:23;;;;;;;2.87;2.60;;;;;;;10.17;100.00;96319.56;5113825;28;20201;-57
2023/10/23 02:32:49;;;;;;;3.57;2.80;;;;;;;10.16;100.00;96314.47;5113135;28;20225;-57
2023/10/23 02:35:18;;;;;;;3.10;2.50;;;;;;;10.19;100.00;96304.41;5112519;28;20652;-57
2023/10/23 02:37:44;;;;;;;2.70;2.50;;;;;;;10.16;100.00;96304.72;5094929;28;20652;-58
2023/10/23 02:40:13;;;;;;;2.40;2.20;;;;;;;10.16;100.00;96312.66;5112029;28;20212;-58
2023/10/23 02:42:40;;;;;;;4.93;2.60;;;;;;;10.16;100.00;96314.47;5112181;28;20201;-58
2023/10/23 02:45:08;;;;;;;3.27;2.40;;;;;;;10.13;100.00;96314.72;5112416;28;20635;-58
2023/10/23 02:47:34;;;;;;;3.63;2.80;;;;;;;10.18;100.00;96315.13;5112717;28;20205;-58
2023/10/23 02:50:01;;;;;;;2.83;2.57;;;;;;;10.14;100.00;96313.72;5113220;28;20197;-58
2023/10/23 02:52:31;;;;;;;3.10;2.90;;;;;;;10.14;100.00;96319.00;5112223;28;20235;-58
2023/10/23 02:54:58;;;;;;;3.73;3.07;;;;;;;10.12;100.00;96300.69;5113246;28;20201;-58
2023/10/23 02:57:24;;;;;;;3.03;2.77;;;;;;;10.10;100.00;96296.50;5112037;28;20209;-58
2023/10/23 02:59:52;;;;;;;3.67;2.70;;;;;;;10.10;100.00;96301.78;5112139;28;20197;-58
2023/10/23 03:02:19;;;;;;;3.37;2.70;;;;;;;10.10;100.00;96307.06;5112510;28;20201;-58
2023/10/23 03:04:46;;;;;;;3.30;2.73;;;;;;;10.12;100.00;96305.13;5112830;28;20213;-58
2023/10/23 03:07:13;;;;;;;3.30;3.00;;;;;;;10.11;100.00;96295.53;5111773;28;20210;-58
2023/10/23 03:09:40;;;;;;;3.00;2.70;;;;;;;10.06;100.00;96301.25;5114362;28;20205;-58
2023/10/23 03:12:07;;;;;;;4.13;3.00;;;;;;;10.08;100.00;96304.59;5114952;28;20248;-58
2023/10/23 03:14:34;;;;;;;3.53;2.50;;;;;;;10.08;100.00;96291.38;5114465;28;20534;-58
2023/10/23 03:17:00;;;;;;;4.90;3.00;;;;;;;10.07;100.00;96288.88;5113082;28;20625;-57
2023/10/23 03:19:27;;;;;;;3.20;2.90;;;;;;;10.05;100.00;96282.91;5112254;28;20201;-57
2023/10/23 03:21:53;;;;;;;4.13;3.10;;;;;;;10.04;100.00;96278.59;5111594;28;20638;-58
2023/10/23 03:24:20;;;;;;;3.97;2.90;;;;;;;10.02;100.00;96274.31;5112013;28;20630;-57
2023/10/23 03:26:48;;;;;;;4.87;2.97;;;;;;;10.10;100.00;96275.38;5111173;28;20220;-58
2023/10/23 03:29:16;;;;;;;3.13;2.93;;;;;;;10.08;100.00;96282.63;5111873;28;20224;-58
2023/10/23 03:31:43;;;;;;;3.67;3.27;;;;;;;10.06;100.00;96297.81;5110591;28;20309;-58
2023/10/23 03:34:11;;;;;;;3.57;3.20;;;;;;;10.02;100.00;96299.06;5112033;28;20221;-58
2023/10/23 03:36:37;;;;;;;4.10;3.13;;;;;;;10.02;100.00;96304.34;5111456;28;20204;-57
2023/10/23 03:39:04;;;;;;;3.43;2.97;;;;;;;10.06;100.00;96306.53;5111821;28;20208;-58
2023/10/23 03:41:31;;;;;;;4.63;3.30;;;;;;;10.05;100.00;96304.06;5111831;28;20258;-58
2023/10/23 03:44:01;;;;;;;3.67;3.10;;;;;;;10.05;100.00;96299.59;5111073;28;20232;-57
2023/10/23 03:46:27;;;;;;;5.20;3.10;;;;;;;10.04;100.00;96307.66;5111571;28;20262;-58
2023/10/23 03:48:54;;;;;;;3.47;3.17;;;;;;;10.06;100.00;96301.25;5110884;28;20197;-57
2023/10/23 03:51:22;;;;;;;5.23;3.00;;;;;;;10.08;100.00;96301.13;5110919;28;20220;-58
2023/10/23 03:53:49;;;;;;;3.43;3.23;;;;;;;10.10;100.00;96297.34;5111440;28;20235;-58
2023/10/23 03:56:15;;;;;;;3.33;3.13;;;;;;;10.05;100.00;96301.41;5111947;28;20205;-58
2023/10/23 03:58:44;;;;;;;3.40;3.10;;;;;;;10.02;100.00;96300.72;5111190;28;20512;-57
2023/10/23 04:01:12;;;;;;;3.37;3.10;;;;;;;10.06;100.00;96284.59;5111669;28;20201;-58
2023/10/23 04:03:38;;;;;;;4.57;3.23;;;;;;;10.04;100.00;96286.53;5111719;28;20220;-58
2023/10/23 04:06:05;;;;;;;5.40;3.10;;;;;;;10.02;100.00;96280.59;5110870;28;20208;-57
2023/10/23 04:08:32;;;;;;;3.50;3.20;;;;;;;10.05;100.00;96288.22;5111089;28;20220;-58
2023/10/23 04:10:59;;;;;;;3.77;3.10;;;;;;;10.06;100.00;96289.88;5111347;28;20260;-58
2023/10/23 04:13:26;;;;;;;4.73;3.47;;;;;;;10.05;100.00;96283.75;5111119;28;20221;-57
2023/10/23 04:15:54;;;;;;;3.67;3.23;;;;;;;9.99;100.00;96285.16;5111078;28;20526;-57
2023/10/23 04:18:22;;;;;;;4.27;3.30;;;;;;;9.99;100.00;96289.59;5111000;28;20553;-58
2023/10/23 04:20:49;;;;;;;4.60;3.03;;;;;;;9.98;100.00;96283.53;5111595;28;20212;-57
2023/10/23 04:23:15;;;;;;;3.53;3.23;;;;;;;9.95;100.00;96267.16;5111109;28;20193;-57
2023/10/23 04:25:42;;;;;;;7.27;3.33;;;;;;;9.90;100.00;96270.22;5111534;28;20235;-58
2023/10/23 04:28:08;;;;;;;4.67;3.47;;;;;;;9.92;100.00;96262.97;5110783;28;20672;-58
2023/10/23 04:30:35;;;;;;;4.17;3.67;;;;;;;9.93;100.00;96263.81;5111358;28;20215;-57
2023/10/23 04:33:02;;;;;;;3.93;3.60;;;;;;;9.88;100.00;96266.88;5111049;28;20216;-57
2023/10/23 04:35:30;;;;;;;3.83;3.27;;;;;;;9.88;100.00;96253.66;5111544;28;20296;-58
2023/10/23 04:37:56;;;;;;;4.93;3.70;;;;;;;9.90;100.00;96259.66;5110901;28;20201;-58
2023/10/23 04:40:23;;;;;;;4.57;3.50;;;;;;;9.90;100.00;96254.38;5111627;28;20201;-58
2023/10/23 04:42:49;;;;;;;3.83;3.53;;;;;;;9.90;100.00;96246.44;5111128;28;20248;-57
2023/10/23 04:45:16;;;;;;;7.10;3.47;;;;;;;9.91;100.00;96242.84;5111929;28;20204;-57
2023/10/23 04:47:42;;;;;;;7.37;3.60;;;;;;;9.96;100.00;96243.19;5110365;28;20201;-58
2023/10/23 04:50:11;;;;;;;4.30;3.93;;;;;;;9.95;100.00;96238.88;5111557;28;20602;-57
2023/10/23 04:52:39;;;;;;;8.13;3.70;;;;;;;9.94;100.00;96239.91;5110002;28;20675;-58
2023/10/23 04:55:07;;;;;;;5.57;3.57;;;;;;;9.96;100.00;96240.56;5111202;28;20225;-58
2023/10/23 04:57:33;;;;;;;3.73;3.50;;;;;;;10.00;100.00;96239.28;5110257;28;20628;-56
2023/10/23 05:00:00;;;;;;;4.73;4.00;;;;;;;10.01;100.00;96242.75;5110924;28;20205;-58
2023/10/23 05:02:26;;;;;;;4.53;3.73;;;;;;;10.02;100.00;96247.88;5111271;28;20220;-58
2023/10/23 05:04:53;;;;;;;4.47;3.60;;;;;;;10.06;100.00;96244.97;5110566;28;20204;-58
2023/10/23 05:07:20;;;;;;;4.53;3.40;;;;;;;10.10;100.00;96243.66;5111933;28;20853;-57
2023/10/23 05:09:49;;;;;;;4.00;3.60;;;;;;;10.10;100.00;96243.66;5114907;28;20197;-58
2023/10/23 05:12:16;;;;;;;6.67;4.20;;;;;;;10.13;100.00;96243.38;5114228;28;20657;-58
2023/10/23 05:14:42;;;;;;;7.03;3.83;;;;;;;10.09;100.00;96244.66;5114788;28;20236;-58
2023/10/23 05:17:15;;;;;;;3.93;3.60;;;;;;;10.11;100.00;96232.13;5114135;28;20196;-58
2023/10/23 05:19:42;;;;;;;4.00;3.70;;;;;;;10.06;100.00;96242.31;5115002;28;20194;-58
2023/10/23 05:22:08;;;;;;;3.97;3.57;;;;;;;10.10;100.00;96239.22;5114521;28;20197;-57
2023/10/23 05:24:35;;;;;;;4.17;3.73;;;;;;;10.10;100.00;96233.94;5113832;28;20201;-58
2023/10/23 05:27:02;;;;;;;3.90;3.60;;;;;;;10.13;100.00;96238.09;5114172;28;20201;-58
2023/10/23 05:29:29;;;;;;;3.90;3.70;;;;;;;10.13;100.00;96244.19;5116411;28;20197;-60
2023/10/23 05:31:55;;;;;;;4.33;3.90;;;;;;;10.14;100.00;96245.03;5118319;28;20208;-56
2023/10/23 05:34:22;;;;;;;4.27;3.87;;;;;;;10.15;100.00;96233.53;5118420;28;20224;-58
2023/10/23 05:36:48;;;;;;;5.13;3.80;;;;;;;10.16;100.00;96238.66;5115684;28;20201;-56
2023/10/23 05:39:15;;;;;;;4.67;4.20;;;;;;;10.17;100.00;96223.63;5112674;28;20228;-57
2023/10/23 05:41:41;;;;;;;4.37;3.97;;;;;;;10.22;100.00;96218.72;5113707;28;20211;-57
2023/10/23 05:44:09;;;;;;;4.00;3.70;;;;;;;10.22;100.00;96222.19;5113445;28;20232;-57
2023/10/23 05:46:36;;;;;;;5.03;4.53;;;;;;;10.26;100.00;96222.72;5115696;28;20193;-57
2023/10/23 05:49:02;;;;;;;4.70;4.30;;;;;;;10.28;100.00;96211.03;5117721;28;20201;-57
2023/10/23 05:51:29;;;;;;;5.80;5.20;;;;;;;10.28;100.00;96196.97;5116404;28;20217;-56
2023/10/23 05:53:57;;;;;;;6.83;5.50;;;;;;;10.31;100.00;96199.31;5115525;28;20559;-56
2023/10/23 05:56:23;;;;;;;6.13;5.10;;;;;;;10.30;100.00;96208.25;5115759;28;20212;-57
2023/10/23 05:58:50;;;;;;;5.77;5.13;;;;;;;10.33;100.00;96208.75;5116972;28;20202;-66
2023/10/23 06:01:18;;;;;;;5.33;4.93;;;;;;;10.40;100.00;96203.69;5114722;28;20626;-57
2023/10/23 06:03:45;;;;;;;5.40;5.00;;;;;;;10.39;100.00;96212.59;5113284;28;20201;-57
2023/10/23 06:06:12;;;;;;;5.63;5.13;;;;;;;10.39;100.00;96204.66;5113201;28;20208;-57
2023/10/23 06:08:39;;;;;;;5.90;4.80;;;;;;;10.44;100.00;96220.91;5112920;28;20626;-57
2023/10/23 06:11:08;;;;;;;5.20;4.70;;;;;;;10.49;100.00;96213.34;5114096;28;20212;-55
2023/10/23 06:13:34;;;;;;;7.67;5.63;;;;;;;10.46;100.00;96209.19;5113918;28;20201;-56
2023/10/23 06:16:04;;;;;;;5.80;5.30;;;;;;;10.46;100.00;96211.84;5113713;28;20205;-57
2023/10/23 06:18:32;;;;;;;5.70;5.20;;;;;;;10.46;100.00;96211.00;5112449;28;20239;-57
2023/10/23 06:20:59;;;;;;;6.90;5.63;;;;;;;10.44;100.00;96221.75;5113226;28;20193;-57
2023/10/23 06:23:26;;;;;;;6.10;5.33;;;;;;;10.45;100.00;96222.59;5113484;28;20197;-57
2023/10/23 06:25:55;;;;;;;5.70;4.97;;;;;;;10.48;100.00;96227.56;5113877;28;20197;-58
2023/10/23 06:28:22;;;;;;;6.07;5.47;;;;;;;10.50;100.00;96233.50;5113157;28;20216;-57
2023/10/23 06:30:48;;;;;;;5.70;5.17;;;;;;;10.47;100.00;96228.53;5113525;28;20529;-57
2023/10/23 06:33:15;;;;;;;5.90;5.40;;;;;;;10.49;100.00;96229.19;5112657;28;20206;-56
2023/10/23 06:35:42;;;;;;;6.53;5.50;;;;;;;10.50;100.00;96220.28;5113026;28;20221;-57
2023/10/23 06:38:09;;;;;;;5.80;5.20;;;;;;;10.54;100.00;96229.59;5111306;28;20205;-57
2023/10/23 06:40:36;;;;;;;6.00;5.40;;;;;;;10.58;100.00;96228.31;5113105;28;20302;-57
2023/10/23 06:43:02;;;;;;;6.07;5.47;;;;;;;10.61;100.00;96228.00;5110756;28;20236;-56
2023/10/23 06:45:29;;;;;;;5.53;5.03;;;;;;;10.68;100.00;96221.09;5112684;28;20659;-56
2023/10/23 06:47:55;;;;;;;5.57;5.07;;;;;;;10.76;100.00;96215.06;5111770;28;20201;-56
2023/10/23 06:50:22;;;;;;;8.97;5.60;;;;;;;10.76;100.00;96213.25;5111340;28;20215;-56
2023/10/23 06:52:49;;;;;;;5.70;5.20;;;;;;;10.81;100.00;96212.75;5111811;28;20205;-56
2023/10/23 06:55:17;;;;;;;7.27;5.30;;;;;;;10.87;100.00;96207.69;5112338;28;20228;-57
2023/10/23 06:57:44;;;;;;;6.27;5.60;;;;;;;10.96;100.00;96205.91;5112123;28;20253;-57
2023/10/23 07:00:11;;;;;;;6.63;5.53;;;;;;;11.01;100.00;96203.66;5112828;28;20214;-57
2023/10/23 07:02:38;;;;;;;7.43;6.13;;;;;;;11.04;100.00;96194.56;5111660;28;20212;-56
2023/10/23 07:05:04;;;;;;;7.73;6.20;;;;;;;11.01;100.00;96190.41;5112876;28;20205;-57
2023/10/23 07:07:31;;;;;;;8.10;6.10;;;;;;;10.98;100.00;96191.53;5111995;28;20287;-57
2023/10/23 07:09:59;;;;;;;8.07;6.40;;;;;;;11.04;100.00;96189.25;5112528;28;20201;-57
2023/10/23 07:12:26;;;;;;;7.00;6.33;;;;;;;11.01;100.00;96184.28;5111202;28;20209;-56
2023/10/23 07:14:53;;;;;;;6.30;5.70;;;;;;;11.10;100.00;96185.97;5110911;28;20319;-56
2023/10/23 07:17:20;;;;;;;6.90;5.40;;;;;;;11.16;100.00;96203.91;5111312;28;20208;-57
2023/10/23 07:19:46;;;;;;;7.80;5.83;;;;;;;11.15;100.00;96200.41;5110901;28;20641;-56
2023/10/23 07:22:12;;;;;;;8.00;7.20;;;;;;;11.15;100.00;96199.59;5111113;28;20201;-57
2023/10/23 07:24:39;;;;;;;6.67;6.07;;;;;;;11.13;100.00;96196.25;5111407;28;20201;-57
2023/10/23 07:27:11;;;;;;;6.37;5.87;;;;;;;11.10;100.00;96194.75;5111313;28;20645;-57
2023/10/23 07:29:37;;;;;;;6.30;5.70;;;;;;;11.14;100.00;96184.69;5110757;28;20280;-58
2023/10/23 07:32:06;;;;;;;6.73;6.17;;;;;;;11.14;100.00;96174.94;5112438;28;20201;-58
2023/10/23 07:34:32;;;;;;;6.87;6.20;;;;;;;11.15;100.00;96173.13;5110717;28;20571;-57
2023/10/23 07:36:59;;;;;;;7.47;6.53;;;;;;;11.13;100.00;96169.78;5110912;28;20652;-56
2023/10/23 07:39:25;;;;;;;6.77;6.13;;;;;;;11.16;100.00;96172.94;5110893;28;20205;-57
2023/10/23 07:41:51;;;;;;;6.80;6.00;;;;;;;11.21;100.00;96175.13;5118897;28;20197;-58
2023/10/23 07:44:20;;;;;;;6.70;6.20;;;;;;;11.25;100.00;96166.72;5117790;28;20240;-55
2023/10/23 07:46:46;;;;;;;7.17;6.57;;;;;;;11.32;100.00;96170.41;5120490;28;20205;-57
2023/10/23 07:49:13;;;;;;;7.37;6.77;;;;;;;11.28;100.00;96170.84;5118648;28;20200;-57
2023/10/23 07:51:39;;;;;;;7.57;6.80;;;;;;;11.26;100.00;96176.34;5127925;28;20201;-56
2023/10/23 07:54:08;;;;;;;6.83;6.23;;;;;;;11.30;100.00;96182.13;5126657;28;20197;-56
2023/10/23 07:56:34;;;;;;;7.47;6.63;;;;;;;11.26;100.00;96180.78;5122091;28;20229;-59
2023/10/23 07:59:00;;;;;;;8.13;6.77;;;;;;;11.31;100.00;96189.91;5119149;28;20197;-57
2023/10/23 08:01:28;;;;;;;7.53;6.83;;;;;;;11.34;100.00;96188.75;5115046;28;20217;-55
2023/10/23 08:03:55;;;;;;;6.57;5.93;;;;;;;11.31;100.00;96189.06;5114840;28;20205;-57
2023/10/23 08:06:21;;;;;;;6.27;5.77;;;;;;;11.37;100.00;96180.50;5115351;28;20212;-57
2023/10/23 08:08:48;;;;;;;6.57;6.07;;;;;;;11.44;100.00;96186.81;5115358;28;20197;-56
2023/10/23 08:11:14;;;;;;;7.60;6.47;;;;;;;11.48;100.00;96193.44;5117384;28;20201;-57
2023/10/23 08:13:41;;;;;;;7.67;6.40;;;;;;;11.48;100.00;96202.22;5123886;28;20212;-57
2023/10/23 08:16:07;;;;;;;7.47;6.83;;;;;;;11.53;100.00;96208.84;5123641;28;20232;-59
2023/10/23 08:18:35;;;;;;;6.90;6.40;;;;;;;11.60;100.00;96210.72;5120689;28;20212;-56
2023/10/23 08:21:08;;;;;;;6.87;6.27;;;;;;;11.67;100.00;96200.31;5121027;28;20209;-58
2023/10/23 08:23:34;;;;;;;7.17;6.57;;;;;;;11.75;100.00;96208.31;5119469;28;20201;-56
2023/10/23 08:26:01;;;;;;;9.53;6.70;;;;;;;11.76;100.00;96220.59;5116506;28;20205;-57
2023/10/23 08:28:27;;;;;;;7.37;6.77;;;;;;;11.73;100.00;96226.19;5113573;28;20197;-57
2023/10/23 08:30:54;;;;;;;8.30;6.60;;;;;;;11.77;100.00;96230.16;5110089;28;20205;-56
2023/10/23 08:33:20;;;;;;;6.97;6.37;;;;;;;11.78;100.00;96237.97;5111031;28;20552;-57
2023/10/23 08:35:50;;;;;;;6.83;6.10;;;;;;;11.88;100.00;96241.31;5110386;28;20690;-56
2023/10/23 08:38:17;;;;;;;8.67;6.37;;;;;;;11.91;100.00;96240.97;5110365;28;20216;-56
2023/10/23 08:40:43;;;;;;;6.80;6.30;;;;;;;11.93;100.00;96239.03;5109864;28;20246;-57
2023/10/23 08:43:10;;;;;;;6.33;5.73;;;;;;;11.97;100.00;96248.28;5112681;28;20243;-56
2023/10/23 08:45:37;;;;;;;6.47;5.97;;;;;;;11.95;100.00;96247.63;5114729;28;20223;-59
2023/10/23 08:48:04;;;;;;;7.60;6.03;;;;;;;11.98;100.00;96247.28;5115243;28;20193;-55
2023/10/23 08:50:31;;;;;;;6.77;6.07;;;;;;;12.00;100.00;96248.97;5114935;28;20544;-60
2023/10/23 08:53:01;;;;;;;6.27;5.77;;;;;;;12.07;100.00;96247.31;5115450;28;20204;-56
2023/10/23 08:55:29;;;;;;;6.00;5.50;;;;;;;12.03;100.00;96232.72;5114582;28;21403;-55
2023/10/23 08:57:58;;;;;;;6.30;5.70;;;;;;;11.97;100.00;96229.72;5114002;28;20201;-55
2023/10/23 09:00:25;;;;;;;5.40;4.90;;;;;;;12.02;100.00;96216.00;5115061;28;20201;-56
2023/10/23 09:02:52;;;;;;;6.40;5.33;;;;;;;11.96;100.00;96206.06;5113472;28;20205;-55
2023/10/23 09:05:19;;;;;;;7.37;5.23;;;;;;;11.94;100.00;96198.25;5111748;28;20197;-55
2023/10/23 09:07:46;;;;;;;7.87;4.83;;;;;;;11.83;100.00;96180.00;5112776;28;20320;-55
2023/10/23 09:10:14;;;;;;;4.70;4.33;;;;;;;11.80;100.00;96161.78;5112737;28;20200;-56
2023/10/23 09:12:41;;;;;;;5.37;4.33;;;;;;;11.79;100.00;96152.22;5114022;28;20201;-55
2023/10/23 09:15:14;;;;;;;4.90;4.43;;;;;;;11.80;100.00;96153.84;5113286;28;20225;-56
2023/10/23 09:17:42;;;;;;;6.67;4.43;;;;;;;11.88;100.00;96155.69;5114031;28;20197;-56
2023/10/23 09:20:23;;;;;;;5.17;4.60;;;;;;;11.89;100.00;96163.50;5113703;28;20220;-54
2023/10/23 09:22:50;;;;;;;4.97;4.57;;;;;;;11.93;100.00;96164.00;5113479;28;20254;-54
2023/10/23 09:25:19;;;;;;;5.73;4.67;;;;;;;11.92;100.00;96163.16;5112113;28;20553;-57
2023/10/23 09:27:45;;;;;;;6.17;4.50;;;;;;;11.93;100.00;96170.13;5113931;28;20205;-57
2023/10/23 09:30:15;;;;;;;4.30;3.90;;;;;;;11.85;100.00;96159.50;5113314;28;20205;-57
2023/10/23 09:32:43;;;;;;;4.67;4.17;;;;;;;11.96;100.00;96153.06;5114396;28;20703;-55
2023/10/23 09:35:11;;;;;;;5.17;4.00;;;;;;;12.04;100.00;96162.84;5114539;28;20352;-56
2023/10/23 09:37:39;;;;;;;4.60;4.03;;;;;;;12.06;100.00;96158.19;5113786;28;20205;-56
2023/10/23 09:40:06;;;;;;;6.67;4.60;;;;;;;12.11;100.00;96163.84;5112707;28;20202;-56
2023/10/23 09:42:35;;;;;;;4.23;3.83;;;;;;;12.14;100.00;96155.56;5113355;28;20197;-55
2023/10/23 09:45:03;;;;;;;4.80;3.90;;;;;;;12.35;100.00;96158.56;5112633;28;20205;-57
2023/10/23 09:47:30;;;;;;;4.67;4.20;;;;;;;12.29;100.00;96165.34;5113221;28;20274;-56
2023/10/23 09:49:56;;;;;;;4.40;4.00;;;;;;;12.45;100.00;96153.91;5114714;28;20205;-55
2023/10/23 09:52:24;;;;;;;5.20;4.00;;;;;;;12.57;100.00;96154.41;5113803;28;20549;-55
2023/10/23 09:54:51;;;;;;;4.20;3.90;;;;;;;12.60;100.00;96151.44;5115094;28;20224;-57
2023/10/23 09:57:18;;;;;;;5.13;4.03;;;;;;;12.68;100.00;96149.56;5113695;28;20200;-54
2023/10/23 09:59:51;;;;;;;4.33;3.97;;;;;;;12.75;100.00;96144.44;5114517;28;20204;-55
2023/10/23 10:02:20;;;;;;;6.17;3.60;;;;;;;12.88;100.00;96140.28;5113448;28;20622;-56
2023/10/23 10:04:53;;;;;;;8.13;3.80;;;;;;;13.35;100.00;96144.81;5114060;28;20204;-56
2023/10/23 10:07:23;;;;;;;5.63;3.67;;;;;;;13.46;100.00;96144.44;5113723;28;20196;-56
2023/10/23 10:09:50;;;;;;;5.63;3.60;;;;;;;13.50;100.00;96161.66;5114421;28;20314;-56
2023/10/23 10:12:17;;;;;;;5.23;3.43;;;;;;;13.48;100.00;96158.34;5120224;28;20224;-56
2023/10/23 10:14:44;;;;;;;8.70;3.53;;;;;;;13.56;100.00;96160.16;5115485;28;20220;-56
2023/10/23 10:17:12;;;;;;;3.73;3.30;;;;;;;13.49;100.00;96162.69;5113417;28;20201;-55
2023/10/23 10:19:40;;;;;;;5.00;3.30;;;;;;;13.31;100.00;96164.72;5113714;28;20204;-56
2023/10/23 10:22:11;;;;;;;3.33;2.97;;;;;;;13.31;100.00;96172.69;5113367;28;20212;-56
2023/10/23 10:24:38;;;;;;;3.93;3.13;;;;;;;13.18;100.00;96169.75;5112681;28;20196;-56
2023/10/23 10:27:05;;;;;;;3.87;3.47;;;;;;;13.15;100.00;96180.69;5112843;28;20205;-55
2023/10/23 10:29:32;;;;;;;3.50;3.20;;;;;;;13.05;100.00;96177.38;5113116;28;20233;-57
2023/10/23 10:32:05;;;;;;;3.90;3.07;;;;;;;13.05;100.00;96169.41;5112984;28;20518;-57
2023/10/23 10:34:35;;;;;;;4.67;3.40;;;;;;;13.07;100.00;96167.44;5112953;28;20212;-55
2023/10/23 10:37:04;;;;;;;3.60;3.10;;;;;;;13.15;100.00;96170.91;5112549;28;20241;-56
2023/10/23 10:40:04;;;;;;;3.07;2.77;;;;;;;13.27;100.00;96166.06;5112587;28;20201;-56
2023/10/23 10:42:31;;;;;;;3.63;3.30;;;;;;;13.20;100.00;96157.97;5112376;28;20237;-55
2023/10/23 10:44:59;;;;;;;3.33;3.10;;;;;;;13.34;100.00;96156.41;5112073;28;20232;-55
2023/10/23 10:47:35;;;;;;;3.50;3.17;;;;;;;13.21;100.00;96092.41;5112369;28;20280;-56
2023/10/23 10:50:05;;;;;;;3.40;3.10;;;;;;;13.10;100.00;96058.28;5112210;28;20197;-55
2023/10/23 10:52:36;;;;;;;3.83;3.17;;;;;;;13.19;100.00;96094.41;5113166;28;20213;-55
2023/10/23 10:55:04;;;;;;;4.25;3.08;;;;;;;13.24;100.00;96097.38;5112637;28;20193;-53
2023/10/23 10:57:31;;;;;;;3.70;3.20;;;;;;;13.20;100.00;96082.78;5114021;28;20213;-53
2023/10/23 10:59:59;;;;;;;3.40;3.20;;;;;;;13.20;100.00;96069.53;5113528;28;20193;-55
2023/10/23 11:02:25;;;;;;;3.40;3.10;;;;;;;13.22;100.00;96083.44;5111302;28;20212;-55
2023/10/23 11:04:52;;;;;;;3.17;2.97;;;;;;;13.24;100.00;96076.97;5111629;28;20647;-54
2023/10/23 11:07:22;;;;;;;3.67;3.30;;;;;;;13.23;100.00;96072.66;5111871;28;20202;-54
2023/10/23 11:09:49;;;;;;;3.70;3.20;;;;;;;13.27;100.00;96062.50;5111156;28;20200;-53
2023/10/23 11:12:17;;;;;;;3.58;3.10;;;;;;;13.39;100.00;96063.78;5111337;28;20205;-53
2023/10/23 11:14:43;;;;;;;3.50;2.90;;;;;;;13.70;100.00;96056.63;5111637;28;20220;-54
2023/10/23 11:17:10;;;;;;;3.30;3.00;;;;;;;14.04;100.00;96047.38;5111930;28;20220;-54
2023/10/23 11:19:37;;;;;;;3.50;3.08;;;;;;;14.15;100.00;96049.63;5111383;28;20208;-55
2023/10/23 11:22:07;;;;;;;3.17;2.88;;;;;;;14.12;100.00;96045.50;5112212;28;20205;-55
2023/10/23 11:24:35;;;;;;;3.05;2.72;;;;;;;14.38;100.00;96037.16;5111701;28;20212;-55
2023/10/23 11:27:04;;;;;;;6.82;3.40;;;;;;;14.48;100.00;96024.41;5111711;28;20193;-54